Time;durP1;ratioP1;P1;durP2;ratioP2;P2;SDS_P1;SDS_P2;PMS_P1;PMS_P2;Temp;Humidity;BMP_temperature;BMP_pressure;BME280_temperature;BME280_humidity;BME280_pressure;Samples;Min_cycle;Max_cycle;Signal;HPM_P1;HPM_P2
2021/11/23 00:00:08;;;;;;;17.93;9.63;;;;;;;4.88;94.42;102693.31;5048539;28;20562;-80
2021/11/23 00:02:40;;;;;;;18.57;9.87;;;;;;;4.93;94.14;102687.78;5051712;28;20220;-78
2021/11/23 00:05:07;;;;;;;12.83;9.23;;;;;;;4.97;94.18;102687.22;5050938;28;20239;-78
2021/11/23 00:07:32;;;;;;;21.93;10.07;;;;;;;4.99;94.52;102685.72;5051403;28;20186;-79
2021/11/23 00:09:58;;;;;;;16.70;10.13;;;;;;;5.01;94.55;102683.28;5047743;28;20217;-78
2021/11/23 00:12:24;;;;;;;19.27;10.27;;;;;;;5.03;95.20;102687.69;5032564;28;20655;-80
2021/11/23 00:14:50;;;;;;;15.53;11.03;;;;;;;5.03;95.27;102682.63;5043592;28;20186;-78
2021/11/23 00:17:16;;;;;;;16.90;10.37;;;;;;;5.05;94.86;102678.50;5044435;28;20529;-78
2021/11/23 00:19:42;;;;;;;16.93;11.10;;;;;;;5.06;94.79;102682.81;5046574;28;20209;-79
2021/11/23 00:22:08;;;;;;;17.20;11.37;;;;;;;5.06;94.66;102675.19;5042074;28;20217;-80
2021/11/23 00:24:33;;;;;;;18.77;10.73;;;;;;;5.11;95.02;102686.56;5037043;28;20204;-81
2021/11/23 00:26:59;;;;;;;22.33;11.13;;;;;;;5.11;95.26;102678.94;5043925;28;20190;-81
2021/11/23 00:29:24;;;;;;;16.93;11.37;;;;;;;5.15;95.65;102683.47;5033993;28;20225;-80
2021/11/23 00:31:50;;;;;;;21.00;10.43;;;;;;;5.18;95.45;102673.53;5035654;28;20719;-81
2021/11/23 00:34:15;;;;;;;25.30;10.77;;;;;;;5.19;95.80;102672.75;5045899;28;20185;-79
2021/11/23 00:36:41;;;;;;;18.20;10.53;;;;;;;5.25;95.62;102677.38;5050033;28;20194;-79
2021/11/23 00:39:06;;;;;;;18.57;10.23;;;;;;;5.30;95.59;102679.44;5035604;28;20201;-80
2021/11/23 00:41:32;;;;;;;19.50;10.27;;;;;;;5.37;95.45;102679.09;5044447;28;20217;-80
2021/11/23 00:43:57;;;;;;;16.43;10.67;;;;;;;5.41;95.87;102681.09;5036135;28;20191;-79
2021/11/23 00:46:23;;;;;;;20.23;10.87;;;;;;;5.49;95.70;102676.53;5053099;28;20194;-79
2021/11/23 00:48:48;;;;;;;19.63;9.90;;;;;;;5.55;96.06;102679.47;5052313;28;20185;-79
2021/11/23 00:51:14;;;;;;;20.63;9.73;;;;;;;5.58;95.67;102680.56;5035277;28;20552;-79
2021/11/23 00:53:40;;;;;;;26.47;11.67;;;;;;;5.64;95.58;102685.19;5030674;28;20209;-80
2021/11/23 00:56:06;;;;;;;19.30;12.17;;;;;;;5.63;96.13;102680.91;5035397;28;20647;-79
2021/11/23 00:58:32;;;;;;;17.93;11.07;;;;;;;5.67;95.92;102680.34;5049678;28;20235;-80
2021/11/23 01:00:59;;;;;;;26.13;10.97;;;;;;;5.70;96.22;102673.78;5034223;28;20212;-79
2021/11/23 01:03:26;;;;;;;21.00;10.73;;;;;;;5.71;96.11;102679.78;5049874;28;20230;-81
2021/11/23 01:05:52;;;;;;;20.03;11.03;;;;;;;5.73;95.99;102671.47;5052003;28;20240;-81
2021/11/23 01:08:18;;;;;;;17.90;10.73;;;;;;;5.73;95.80;102665.50;5032154;28;20604;-80
2021/11/23 01:10:44;;;;;;;20.10;12.00;;;;;;;5.76;96.25;102674.19;5020310;28;20340;-79
2021/11/23 01:13:10;;;;;;;18.63;11.50;;;;;;;5.79;96.07;102668.44;5037488;28;20186;-78
2021/11/23 01:15:37;;;;;;;21.40;11.20;;;;;;;5.82;96.32;102672.13;5048510;28;20224;-79
2021/11/23 01:18:03;;;;;;;16.43;11.27;;;;;;;5.84;96.53;102670.56;5034116;28;20186;-80
2021/11/23 01:20:29;;;;;;;19.13;11.20;;;;;;;5.87;96.09;102674.97;5035507;28;20285;-81
2021/11/23 01:22:57;;;;;;;21.00;11.97;;;;;;;5.89;96.09;102666.66;5046203;28;20590;-80
2021/11/23 01:25:23;;;;;;;21.73;10.97;;;;;;;5.89;96.41;102673.44;5017751;28;20682;-80
2021/11/23 01:27:49;;;;;;;17.07;11.80;;;;;;;5.90;96.59;102676.03;5046214;28;20206;-78
2021/11/23 01:30:15;;;;;;;19.83;12.23;;;;;;;5.90;96.00;102676.03;5020480;28;20208;-80
2021/11/23 01:32:41;;;;;;;19.90;11.10;;;;;;;5.95;96.56;102684.84;5053192;28;20666;-80
2021/11/23 01:35:08;;;;;;;20.17;12.20;;;;;;;5.95;95.98;102679.78;5036421;28;20186;-79
2021/11/23 01:37:35;;;;;;;21.30;11.23;;;;;;;5.97;96.14;102679.88;5035060;28;20182;-80
2021/11/23 01:40:00;;;;;;;26.67;12.03;;;;;;;5.99;96.29;102683.44;5033651;28;20289;-81
2021/11/23 01:42:26;;;;;;;16.93;10.57;;;;;;;5.99;96.36;102686.84;5056949;28;20725;-81
2021/11/23 01:44:52;;;;;;;14.20;10.80;;;;;;;6.01;96.44;102684.41;5033846;28;20194;-79
2021/11/23 01:47:18;;;;;;;19.13;11.23;;;;;;;6.00;96.40;102681.00;5041813;28;20190;-78
2021/11/23 01:49:43;;;;;;;16.37;11.73;;;;;;;6.06;95.85;102668.69;5034924;28;20202;-80
2021/11/23 01:52:09;;;;;;;19.37;12.00;;;;;;;6.07;96.21;102660.25;5042820;28;20185;-80
2021/11/23 01:54:35;;;;;;;19.57;12.50;;;;;;;6.08;96.58;102664.56;5027237;28;20189;-80
2021/11/23 01:57:02;;;;;;;17.23;12.03;;;;;;;6.12;95.98;102655.50;5040548;28;20784;-78
2021/11/23 01:59:27;;;;;;;18.80;11.47;;;;;;;6.11;95.79;102644.44;5032540;28;20213;-80
2021/11/23 02:01:53;;;;;;;16.07;11.67;;;;;;;6.14;96.52;102656.47;5045184;28;20798;-79
2021/11/23 02:04:18;;;;;;;18.07;11.43;;;;;;;6.16;96.20;102649.81;5031724;28;20197;-79
2021/11/23 02:06:44;;;;;;;19.73;11.77;;;;;;;6.19;95.88;102645.84;5032658;28;20186;-79
2021/11/23 02:09:10;;;;;;;18.13;11.17;;;;;;;6.19;96.24;102653.47;5047760;28;20190;-79
2021/11/23 02:11:36;;;;;;;17.50;11.30;;;;;;;6.21;95.92;102656.97;5031726;28;20205;-79
2021/11/23 02:14:03;;;;;;;18.20;10.97;;;;;;;6.24;96.43;102656.28;5050460;28;20181;-79
2021/11/23 02:16:30;;;;;;;17.30;10.60;;;;;;;6.24;95.79;102664.81;5047034;28;20233;-79
2021/11/23 02:18:55;;;;;;;16.30;11.23;;;;;;;6.26;96.63;102658.16;5035745;23;20178;-78
2021/11/23 02:21:21;;;;;;;15.70;10.77;;;;;;;6.30;95.58;102657.56;5025140;28;20195;-77
2021/11/23 02:23:47;;;;;;;15.83;10.60;;;;;;;6.32;95.64;102663.66;5027300;28;20210;-78
2021/11/23 02:26:12;;;;;;;15.43;10.73;;;;;;;6.35;96.35;102661.28;5028488;28;20195;-78
2021/11/23 02:28:38;;;;;;;18.47;10.50;;;;;;;6.38;95.92;102661.50;5008443;28;20217;-79
2021/11/23 02:31:06;;;;;;;14.33;11.10;;;;;;;6.39;95.58;102663.25;5009900;28;20819;-78
2021/11/23 02:33:32;;;;;;;15.40;10.43;;;;;;;6.43;95.83;102664.34;5028459;28;20181;-78
2021/11/23 02:36:01;;;;;;;18.53;10.83;;;;;;;6.44;95.76;102663.56;5028512;28;20273;-78
2021/11/23 02:38:27;;;;;;;17.37;10.57;;;;;;;6.45;95.44;102661.09;5024227;28;20237;-76
2021/11/23 02:40:53;;;;;;;16.97;10.77;;;;;;;6.46;94.87;102657.81;5028483;28;20205;-77
2021/11/23 02:43:18;;;;;;;14.67;11.57;;;;;;;6.47;95.78;102661.22;5028756;28;20210;-79
2021/11/23 02:45:44;;;;;;;14.57;10.63;;;;;;;6.49;95.92;102654.56;5028420;28;20186;-75
2021/11/23 02:48:12;;;;;;;15.90;11.40;;;;;;;6.49;95.58;102655.44;5015482;28;20183;-78
2021/11/23 02:50:40;;;;;;;15.23;11.70;;;;;;;6.51;95.62;102658.09;5025579;28;20633;-78
2021/11/23 02:53:06;;;;;;;14.17;11.53;;;;;;;6.53;95.16;102648.88;5029294;28;20197;-78
2021/11/23 02:55:33;;;;;;;15.37;11.03;;;;;;;6.53;94.91;102643.78;5029513;28;20186;-76
2021/11/23 02:58:06;;;;;;;16.33;11.17;;;;;;;6.56;96.04;102657.63;5028790;28;20190;-78
2021/11/23 03:00:32;;;;;;;16.93;11.37;;;;;;;6.56;95.42;102647.44;5024500;28;20382;-78
2021/11/23 03:02:58;;;;;;;15.77;10.93;;;;;;;6.57;95.20;102636.47;5034230;28;20214;-77
2021/11/23 03:05:26;;;;;;;15.63;11.03;;;;;;;6.58;96.11;102640.75;5029472;28;20189;-77
2021/11/23 03:07:54;;;;;;;16.33;11.53;;;;;;;6.60;95.37;102643.41;5024277;28;20184;-78
2021/11/23 03:10:21;;;;;;;15.83;11.23;;;;;;;6.62;95.15;102636.75;5027870;28;20213;-78
2021/11/23 03:12:49;;;;;;;16.93;11.57;;;;;;;6.63;95.00;102635.97;5027920;28;20193;-79
2021/11/23 03:15:17;;;;;;;17.93;12.10;;;;;;;6.66;95.33;102639.59;5029877;28;20189;-77
2021/11/23 03:17:43;;;;;;;16.60;11.17;;;;;;;6.68;94.90;102635.47;5019442;28;20191;-78
2021/11/23 03:20:10;;;;;;;18.20;12.17;;;;;;;6.70;94.73;102631.38;5012359;28;20692;-76
2021/11/23 03:22:36;;;;;;;15.90;11.87;;;;;;;6.70;94.91;102622.84;5025968;28;20218;-78
2021/11/23 03:25:02;;;;;;;19.37;12.57;;;;;;;6.73;95.21;102629.00;5032370;28;20193;-78
2021/11/23 03:27:28;;;;;;;15.53;11.67;;;;;;;6.75;95.32;102622.34;5014331;28;20273;-78
2021/11/23 03:29:53;;;;;;;17.10;11.13;;;;;;;6.79;96.26;102634.50;5032416;28;20645;-77
2021/11/23 03:32:19;;;;;;;14.97;11.90;;;;;;;6.79;96.06;102628.50;5026523;28;20261;-78
2021/11/23 03:34:47;;;;;;;18.50;12.10;;;;;;;6.80;95.79;102627.72;5011599;28;20607;-80
2021/11/23 03:37:15;;;;;;;17.47;12.00;;;;;;;6.81;95.30;102632.06;5019828;28;20198;-78
2021/11/23 03:39:42;;;;;;;17.20;10.90;;;;;;;6.83;95.71;102623.72;5030881;28;20205;-78
2021/11/23 03:42:07;;;;;;;15.17;11.27;;;;;;;6.86;95.50;102620.50;5031848;28;20572;-78
2021/11/23 03:44:34;;;;;;;16.17;12.00;;;;;;;6.88;95.86;102608.72;5032658;28;20199;-77
2021/11/23 03:47:01;;;;;;;15.03;11.33;;;;;;;6.88;95.64;102609.63;5032385;28;20186;-78
2021/11/23 03:49:27;;;;;;;15.70;11.83;;;;;;;6.89;95.45;102607.94;5014346;28;20241;-79
2021/11/23 03:51:54;;;;;;;17.97;12.43;;;;;;;6.88;95.95;102608.72;5031173;28;20581;-78
2021/11/23 03:54:19;;;;;;;15.97;11.90;;;;;;;6.85;95.94;102619.59;5032547;28;20581;-77
2021/11/23 03:56:47;;;;;;;15.13;11.97;;;;;;;6.82;96.23;102619.41;5032599;28;20189;-78
2021/11/23 03:59:13;;;;;;;16.00;12.27;;;;;;;6.84;96.24;102616.94;5010938;28;20199;-77
2021/11/23 04:01:39;;;;;;;14.47;12.10;;;;;;;6.88;95.58;102608.72;5011061;28;20187;-77
2021/11/23 04:04:05;;;;;;;14.83;12.00;;;;;;;6.90;95.74;102604.59;4994771;28;20191;-77
2021/11/23 04:06:30;;;;;;;16.10;11.00;;;;;;;6.90;96.30;102607.13;5010977;28;20731;-78
2021/11/23 04:08:56;;;;;;;17.30;11.93;;;;;;;6.89;96.21;102601.19;5011769;28;20193;-78
2021/11/23 04:11:22;;;;;;;15.73;11.70;;;;;;;6.88;95.85;102598.53;5012249;28;20804;-78
2021/11/23 04:13:47;;;;;;;13.87;11.63;;;;;;;6.88;95.75;102598.53;5010742;28;20286;-78
2021/11/23 04:16:13;;;;;;;17.50;12.07;;;;;;;6.89;95.48;102602.84;5012179;28;20187;-78
2021/11/23 04:18:39;;;;;;;16.43;11.83;;;;;;;6.88;95.28;102598.53;5030343;28;20186;-78
2021/11/23 04:21:04;;;;;;;17.10;11.27;;;;;;;6.87;95.45;102591.69;5037104;28;20717;-78
2021/11/23 04:23:30;;;;;;;14.60;12.07;;;;;;;6.80;95.71;102595.53;5050201;28;20263;-78
2021/11/23 04:25:56;;;;;;;14.53;11.20;;;;;;;6.72;95.03;102606.03;5050637;28;20551;-76
2021/11/23 04:28:22;;;;;;;16.10;11.57;;;;;;;6.69;94.80;102610.91;5051249;28;20217;-78
2021/11/23 04:30:47;;;;;;;15.87;11.43;;;;;;;6.67;94.86;102613.34;5050013;28;20289;-76
2021/11/23 04:33:14;;;;;;;12.73;10.90;;;;;;;6.68;94.66;102616.78;5051549;28;20208;-79
2021/11/23 04:35:41;;;;;;;13.60;11.10;;;;;;;6.70;94.83;102608.47;5046912;28;20248;-78
2021/11/23 04:38:10;;;;;;;15.87;11.80;;;;;;;6.70;94.85;102612.66;5041263;28;20213;-78
2021/11/23 04:40:36;;;;;;;19.07;13.13;;;;;;;6.71;94.90;102622.06;5030021;28;20219;-77
2021/11/23 04:43:05;;;;;;;16.90;11.93;;;;;;;6.74;95.56;102627.34;5037688;28;20212;-76
2021/11/23 04:45:32;;;;;;;21.00;13.07;;;;;;;6.78;95.56;102630.16;5033449;28;20197;-79
2021/11/23 04:47:57;;;;;;;19.73;13.37;;;;;;;6.83;95.04;102633.03;5049755;28;20177;-78
2021/11/23 04:50:23;;;;;;;19.43;13.10;;;;;;;6.85;95.70;102628.88;5051041;28;20711;-78
2021/11/23 04:52:49;;;;;;;21.83;13.80;;;;;;;6.84;95.13;102638.22;5049582;28;20654;-77
2021/11/23 04:55:14;;;;;;;19.53;13.27;;;;;;;6.84;95.50;102634.78;5042999;28;20240;-77
2021/11/23 04:57:41;;;;;;;24.37;14.40;;;;;;;6.86;94.73;102636.63;5031107;28;20178;-76
2021/11/23 05:00:09;;;;;;;19.67;14.30;;;;;;;6.88;95.50;102644.38;5029521;28;20206;-78
2021/11/23 05:02:35;;;;;;;22.57;14.23;;;;;;;6.88;95.56;102645.25;5031100;28;20202;-78
2021/11/23 05:05:01;;;;;;;18.97;13.63;;;;;;;6.91;95.73;102657.31;5030055;28;20217;-78
2021/11/23 05:07:26;;;;;;;22.93;14.57;;;;;;;6.92;94.91;102647.22;5029730;28;20201;-79
2021/11/23 05:09:52;;;;;;;19.97;14.77;;;;;;;6.94;95.10;102650.72;5030701;28;20293;-76
2021/11/23 05:12:17;;;;;;;21.77;14.70;;;;;;;6.95;95.86;102656.72;5029643;28;20175;-76
2021/11/23 05:14:43;;;;;;;24.43;14.87;;;;;;;6.97;95.52;102655.13;5030857;28;20686;-79
2021/11/23 05:17:08;;;;;;;19.53;14.63;;;;;;;6.98;94.73;102657.78;5030701;28;20643;-78
2021/11/23 05:19:34;;;;;;;20.50;15.03;;;;;;;7.01;95.44;102652.84;5012499;28;20214;-78
2021/11/23 05:22:00;;;;;;;25.10;15.40;;;;;;;7.04;94.46;102644.56;5030653;28;20210;-78
2021/11/23 05:24:25;;;;;;;26.60;16.03;;;;;;;7.06;95.87;102641.31;5030589;28;20209;-78
2021/11/23 05:26:51;;;;;;;24.10;15.60;;;;;;;7.08;95.38;102644.84;5029253;28;20659;-78
2021/11/23 05:29:16;;;;;;;25.30;15.73;;;;;;;7.10;95.69;102648.34;5029096;28;20229;-79
2021/11/23 05:31:42;;;;;;;25.87;16.87;;;;;;;7.11;96.17;102647.59;5036644;28;20186;-78
2021/11/23 05:34:07;;;;;;;23.53;15.40;;;;;;;7.13;95.80;102643.44;5049010;28;20189;-79
2021/11/23 05:36:33;;;;;;;25.93;15.37;;;;;;;7.16;96.02;102633.47;5038350;28;20190;-78
2021/11/23 05:38:59;;;;;;;26.47;16.33;;;;;;;7.17;95.78;102632.66;5030193;28;20178;-78
2021/11/23 05:41:25;;;;;;;24.30;15.17;;;;;;;7.20;96.11;102627.78;5029162;28;20185;-77
2021/11/23 05:43:51;;;;;;;25.60;14.90;;;;;;;7.22;96.10;102623.63;5030186;28;20210;-78
2021/11/23 05:46:16;;;;;;;27.43;15.90;;;;;;;7.26;96.11;102627.25;5012485;28;20684;-78
2021/11/23 05:48:42;;;;;;;28.47;16.37;;;;;;;7.27;95.50;102639.22;5045312;28;20269;-78
2021/11/23 05:51:07;;;;;;;25.37;15.57;;;;;;;7.28;96.65;102639.28;5029966;28;20202;-78
2021/11/23 05:53:36;;;;;;;30.07;17.03;;;;;;;7.29;96.18;102643.63;5029000;28;20182;-78
2021/11/23 05:56:02;;;;;;;29.73;15.93;;;;;;;7.29;95.42;102635.09;5029160;28;20837;-78
2021/11/23 05:58:27;;;;;;;26.10;15.33;;;;;;;7.27;95.81;102634.13;5045631;28;20702;-77
2021/11/23 06:00:53;;;;;;;28.90;15.13;;;;;;;7.29;95.37;102640.19;5030511;28;20194;-77
2021/11/23 06:03:19;;;;;;;24.40;15.50;;;;;;;7.30;95.34;102639.38;5030527;28;20271;-77
2021/11/23 06:05:45;;;;;;;22.50;14.50;;;;;;;7.31;95.59;102641.13;5028848;28;20187;-79
2021/11/23 06:08:11;;;;;;;22.10;14.90;;;;;;;7.32;94.94;102645.47;5030230;28;20278;-79
2021/11/23 06:10:37;;;;;;;21.67;14.63;;;;;;;7.33;95.87;102650.63;5029333;28;20202;-78
2021/11/23 06:13:02;;;;;;;25.40;14.27;;;;;;;7.35;95.32;102655.81;5029412;28;20186;-78
2021/11/23 06:15:29;;;;;;;24.77;15.13;;;;;;;7.37;95.02;102654.28;5029230;28;20185;-78
2021/11/23 06:18:02;;;;;;;22.57;14.33;;;;;;;7.36;95.24;102650.84;5030296;28;20252;-79
2021/11/23 06:20:29;;;;;;;21.10;14.23;;;;;;;7.36;95.93;102653.38;5029681;28;20698;-79
2021/11/23 06:22:59;;;;;;;21.43;13.77;;;;;;;7.37;95.87;102659.38;5031101;28;20263;-80
2021/11/23 06:25:26;;;;;;;25.97;14.17;;;;;;;7.36;94.88;102672.88;5029032;28;20302;-78
2021/11/23 06:27:52;;;;;;;22.67;14.93;;;;;;;7.36;94.77;102667.78;5028631;28;20281;-77
2021/11/23 06:30:18;;;;;;;20.20;13.87;;;;;;;7.34;95.35;102669.38;5030381;28;20202;-78
2021/11/23 06:32:44;;;;;;;20.37;12.77;;;;;;;7.36;95.18;102676.31;5030311;28;20309;-77
2021/11/23 06:35:10;;;;;;;21.03;13.43;;;;;;;7.37;95.71;102672.13;5030192;28;20218;-78
2021/11/23 06:37:36;;;;;;;23.77;13.60;;;;;;;7.40;94.93;102673.16;5028840;28;20192;-78
2021/11/23 06:40:02;;;;;;;21.37;12.43;;;;;;;7.40;95.33;102678.28;5029858;28;20202;-80
2021/11/23 06:42:28;;;;;;;21.47;12.47;;;;;;;7.40;95.16;102674.81;5028932;28;20289;-79
2021/11/23 06:44:53;;;;;;;26.40;12.90;;;;;;;7.41;94.24;102687.66;5029069;28;20289;-79
2021/11/23 06:47:19;;;;;;;24.03;12.47;;;;;;;7.43;95.02;102685.22;5028754;28;20187;-77
2021/11/23 06:49:45;;;;;;;20.30;12.37;;;;;;;7.43;94.96;102682.66;5031931;28;20213;-79
2021/11/23 06:52:11;;;;;;;15.53;10.47;;;;;;;7.43;94.68;102685.22;5033594;28;20267;-79
2021/11/23 06:54:37;;;;;;;20.50;11.17;;;;;;;7.42;94.53;102681.78;5032117;28;20254;-77
2021/11/23 06:57:03;;;;;;;18.43;10.67;;;;;;;7.43;94.41;102678.47;5032287;28;20668;-78
2021/11/23 06:59:29;;;;;;;18.87;11.03;;;;;;;7.43;95.22;102677.56;5032423;28;20206;-78
2021/11/23 07:01:54;;;;;;;18.80;12.23;;;;;;;7.42;95.15;102686.88;5032165;28;20182;-79
2021/11/23 07:04:20;;;;;;;20.87;11.50;;;;;;;7.39;94.63;102689.25;5015829;28;20645;-79
2021/11/23 07:06:48;;;;;;;16.37;10.97;;;;;;;7.37;94.32;102690.81;5032080;28;20558;-78
2021/11/23 07:09:15;;;;;;;15.93;10.00;;;;;;;7.38;94.86;102690.00;5031591;28;20613;-78
2021/11/23 07:11:41;;;;;;;18.73;10.70;;;;;;;7.40;93.99;102697.75;5031643;28;20190;-76
2021/11/23 07:14:07;;;;;;;21.67;11.77;;;;;;;7.42;94.56;102696.19;5032082;28;20263;-77
2021/11/23 07:16:36;;;;;;;22.37;12.00;;;;;;;7.42;94.16;102701.31;5031986;28;20210;-79
2021/11/23 07:19:02;;;;;;;20.67;10.53;;;;;;;7.44;94.03;102699.72;5031988;28;20789;-76
2021/11/23 07:21:28;;;;;;;20.70;10.83;;;;;;;7.46;94.21;102698.16;5015486;28;20284;-78
2021/11/23 07:23:54;;;;;;;18.73;10.03;;;;;;;7.47;93.47;102697.38;5015279;28;20245;-78
2021/11/23 07:26:20;;;;;;;17.27;10.00;;;;;;;7.48;93.41;102694.91;5032948;28;20262;-78
2021/11/23 07:28:46;;;;;;;17.87;9.50;;;;;;;7.51;94.04;102700.19;5031626;28;20717;-78
2021/11/23 07:31:11;;;;;;;18.93;9.30;;;;;;;7.51;93.66;102700.19;5033065;28;20167;-79
2021/11/23 07:33:38;;;;;;;19.67;9.67;;;;;;;7.52;93.81;102696.88;5031872;28;20659;-79
2021/11/23 07:36:04;;;;;;;18.33;8.97;;;;;;;7.53;94.02;102701.16;5031705;28;20187;-78
2021/11/23 07:38:30;;;;;;;16.83;9.07;;;;;;;7.50;94.03;102711.16;5031994;28;20194;-78
2021/11/23 07:40:55;;;;;;;18.03;9.03;;;;;;;7.50;93.48;102715.38;5031240;28;20234;-80
2021/11/23 07:43:21;;;;;;;17.27;7.67;;;;;;;7.48;93.13;102707.66;5014628;28;20793;-78
2021/11/23 07:45:46;;;;;;;15.13;7.33;;;;;;;7.47;93.00;102705.88;5031369;28;20198;-78
2021/11/23 07:48:12;;;;;;;21.20;8.30;;;;;;;7.48;93.03;102715.31;5032301;28;20206;-77
2021/11/23 07:50:39;;;;;;;17.87;7.70;;;;;;;7.49;93.32;102714.50;5031134;28;20742;-78
2021/11/23 07:53:05;;;;;;;15.47;7.70;;;;;;;7.53;92.67;102718.13;5014682;28;20682;-78
2021/11/23 07:55:32;;;;;;;13.00;6.90;;;;;;;7.63;92.62;102718.78;5032643;28;20586;-78
2021/11/23 07:57:57;;;;;;;13.70;6.90;;;;;;;7.75;92.32;102731.41;5030992;28;20660;-76
2021/11/23 08:00:23;;;;;;;15.90;7.37;;;;;;;7.80;92.09;102730.00;5030963;28;20293;-79
2021/11/23 08:02:49;;;;;;;12.43;6.70;;;;;;;7.93;91.40;102730.81;5047734;28;20210;-78
2021/11/23 08:05:15;;;;;;;14.17;7.07;;;;;;;7.95;92.19;102731.81;5036173;28;20313;-80
2021/11/23 08:07:40;;;;;;;13.87;6.97;;;;;;;8.08;92.35;102735.97;5027302;28;20734;-79
2021/11/23 08:10:07;;;;;;;10.93;5.87;;;;;;;8.26;90.97;102729.44;5014672;28;20210;-80
2021/11/23 08:12:33;;;;;;;13.97;6.70;;;;;;;8.24;91.05;102723.38;5021845;28;20542;-78
2021/11/23 08:14:59;;;;;;;12.83;5.97;;;;;;;8.28;89.83;102727.84;5012961;28;20210;-79
2021/11/23 08:17:24;;;;;;;14.03;6.33;;;;;;;8.33;89.97;102729.00;5031716;28;20187;-79
2021/11/23 08:19:50;;;;;;;12.67;5.97;;;;;;;8.44;90.46;102725.41;5030214;28;20214;-77
2021/11/23 08:22:16;;;;;;;10.03;4.93;;;;;;;8.51;89.38;102727.50;5031400;28;20214;-79
2021/11/23 08:24:41;;;;;;;11.10;4.77;;;;;;;8.63;89.07;102731.66;5031828;28;20186;-78
2021/11/23 08:27:07;;;;;;;13.03;5.10;;;;;;;8.59;88.85;102718.63;5031483;28;20178;-80
2021/11/23 08:29:32;;;;;;;10.83;5.27;;;;;;;8.48;89.62;102724.81;5031443;28;20194;-78
2021/11/23 08:31:58;;;;;;;8.10;5.23;;;;;;;8.31;89.71;102731.47;5030888;28;20583;-76
2021/11/23 08:34:24;;;;;;;10.67;5.67;;;;;;;8.21;90.38;102726.59;5015233;28;20199;-76
2021/11/23 08:36:50;;;;;;;12.50;5.67;;;;;;;8.27;89.88;102734.63;5026624;28;20661;-79
2021/11/23 08:39:16;;;;;;;11.40;5.43;;;;;;;8.30;89.36;102732.25;5029937;28;20289;-78
2021/11/23 08:41:43;;;;;;;13.37;5.23;;;;;;;8.30;90.56;102736.50;5027030;28;20230;-78
2021/11/23 08:44:09;;;;;;;11.47;4.83;;;;;;;8.25;90.38;102736.19;5030763;28;20206;-77
2021/11/23 08:46:34;;;;;;;8.33;4.60;;;;;;;8.30;89.39;102749.25;5029188;28;20183;-77
2021/11/23 08:49:00;;;;;;;9.70;5.10;;;;;;;8.35;89.99;102745.28;5008514;28;20211;-77
2021/11/23 08:51:29;;;;;;;11.00;6.00;;;;;;;8.40;89.67;102738.78;5025563;28;20208;-79
2021/11/23 08:53:55;;;;;;;12.57;5.90;;;;;;;8.53;89.62;102747.22;5030730;28;20187;-77
2021/11/23 08:56:21;;;;;;;9.17;4.70;;;;;;;8.89;88.41;102753.59;5014130;28;20197;-77
2021/11/23 08:58:50;;;;;;;9.53;4.83;;;;;;;8.97;87.94;102747.22;5013546;28;20595;-78
2021/11/23 09:01:20;;;;;;;11.10;5.30;;;;;;;8.84;88.38;102750.75;5030449;28;20191;-78
2021/11/23 09:03:46;;;;;;;8.63;4.40;;;;;;;9.03;86.88;102751.00;5030102;28;20236;-78
2021/11/23 09:06:11;;;;;;;8.57;4.07;;;;;;;9.15;87.07;102750.78;5013497;28;20186;-76
2021/11/23 09:08:43;;;;;;;7.27;4.03;;;;;;;9.20;86.52;102742.59;5008600;28;20575;-79
2021/11/23 09:11:09;;;;;;;8.37;4.27;;;;;;;9.31;85.50;102749.16;5011463;28;20218;-78
2021/11/23 09:13:34;;;;;;;8.30;4.40;;;;;;;9.53;85.16;102741.88;5031503;28;20174;-79
2021/11/23 09:15:59;;;;;;;7.87;3.77;;;;;;;9.78;83.81;102752.63;5020935;28;20739;-78
2021/11/23 09:18:25;;;;;;;10.47;4.90;;;;;;;10.08;82.01;102749.13;5020345;28;20231;-78
2021/11/23 09:20:50;;;;;;;8.63;4.07;;;;;;;10.18;81.41;102750.50;5003359;28;20296;-78
2021/11/23 09:23:16;;;;;;;7.67;4.80;;;;;;;10.36;80.79;102746.28;5021267;28;20198;-78
2021/11/23 09:25:42;;;;;;;8.57;4.17;;;;;;;10.57;79.98;102752.50;5021989;28;20199;-77
2021/11/23 09:28:09;;;;;;;6.17;4.03;;;;;;;10.81;79.41;102759.72;5030606;28;20210;-77
2021/11/23 09:30:35;;;;;;;8.87;5.30;;;;;;;10.94;78.84;102762.09;5031354;28;20206;-79
2021/11/23 09:33:02;;;;;;;9.23;5.17;;;;;;;11.09;78.01;102752.56;5030235;28;20193;-78
2021/11/23 09:35:28;;;;;;;7.70;4.60;;;;;;;11.55;76.36;102760.72;5013545;28;20193;-79
2021/11/23 09:37:55;;;;;;;9.77;4.83;;;;;;;12.97;71.15;102753.34;5032046;28;20179;-79
2021/11/23 09:40:20;;;;;;;10.00;5.13;;;;;;;14.67;65.13;102752.03;5029773;28;20565;-77
2021/11/23 09:42:48;;;;;;;7.77;4.90;;;;;;;16.85;57.20;102744.75;5030877;28;20229;-76
2021/11/23 09:45:15;;;;;;;6.93;4.50;;;;;;;14.38;64.02;102751.06;5031108;28;20325;-78
2021/11/23 09:47:42;;;;;;;7.53;4.70;;;;;;;12.71;69.97;102765.09;5029951;28;20252;-78
2021/11/23 09:50:09;;;;;;;8.90;4.93;;;;;;;11.86;73.97;102759.66;5030767;28;20255;-79
2021/11/23 09:52:35;;;;;;;9.93;5.67;;;;;;;11.75;75.22;102768.56;5031118;28;20179;-77
2021/11/23 09:55:02;;;;;;;9.20;4.83;;;;;;;11.35;76.62;102757.25;5029197;28;20194;-78
2021/11/23 09:57:27;;;;;;;8.70;5.20;;;;;;;11.02;78.21;102757.31;5028680;28;20304;-77
2021/11/23 09:59:53;;;;;;;10.10;5.13;;;;;;;11.00;79.38;102757.25;5029799;28;20772;-78
2021/11/23 10:02:31;;;;;;;8.87;5.17;;;;;;;10.93;79.94;102762.00;5028966;28;20206;-79
2021/11/23 10:05:07;;;;;;;9.87;4.87;;;;;;;10.67;80.38;102757.28;5028578;28;20258;-78
2021/11/23 10:07:44;;;;;;;9.83;5.07;;;;;;;10.63;80.81;102766.50;5029142;28;20174;-78
2021/11/23 10:10:11;;;;;;;7.73;4.40;;;;;;;10.59;81.14;102761.13;5014015;28;20225;-77
2021/11/23 10:12:36;;;;;;;10.40;4.97;;;;;;;10.38;81.33;102762.63;5030372;28;20201;-78
2021/11/23 10:15:10;;;;;;;8.90;4.70;;;;;;;10.71;80.66;102754.97;5029225;28;20183;-78
2021/11/23 10:17:36;;;;;;;7.53;4.50;;;;;;;12.14;75.88;102742.09;5028997;28;20308;-78
2021/11/23 10:20:02;;;;;;;6.13;3.80;;;;;;;12.06;73.56;102748.59;5029857;28;20213;-78
2021/11/23 10:22:38;;;;;;;8.00;3.80;;;;;;;11.97;75.43;102758.44;5028634;28;20217;-78
2021/11/23 10:25:07;;;;;;;6.00;3.60;;;;;;;13.31;69.16;102743.56;5029565;28;20186;-79
2021/11/23 10:27:41;;;;;;;6.70;3.93;;;;;;;12.95;71.06;102742.09;5029628;28;20578;-78
2021/11/23 10:30:09;;;;;;;7.73;3.43;;;;;;;13.25;69.75;102734.75;5031833;28;20216;-76
2021/11/23 10:32:43;;;;;;;7.33;4.00;;;;;;;12.93;70.65;102738.56;5032889;28;20655;-76
2021/11/23 10:35:18;;;;;;;9.10;3.97;;;;;;;14.03;67.73;102733.44;5036466;28;20178;-79
2021/11/23 10:37:45;;;;;;;6.67;3.20;;;;;;;14.76;65.03;102735.16;5031534;28;20239;-77
2021/11/23 10:40:13;;;;;;;6.03;2.80;;;;;;;14.95;63.75;102729.75;5030894;28;20598;-77
2021/11/23 10:42:39;;;;;;;7.47;2.50;;;;;;;14.25;64.75;102729.94;5030803;28;20681;-78
2021/11/23 10:45:10;;;;;;;5.37;2.67;;;;;;;13.96;66.84;102723.75;5014883;28;20193;-77
2021/11/23 10:47:41;;;;;;;7.00;2.87;;;;;;;13.12;68.90;102738.53;5031840;28;20190;-78
2021/11/23 10:50:09;;;;;;;5.87;2.53;;;;;;;12.44;71.78;102739.97;5032324;28;20581;-77
2021/11/23 10:52:41;;;;;;;5.83;2.80;;;;;;;12.75;72.11;102745.53;5031823;28;20210;-78
2021/11/23 10:55:23;;;;;;;6.43;2.67;;;;;;;12.93;70.24;102743.72;5015554;28;20233;-76
2021/11/23 10:57:50;;;;;;;7.97;2.67;;;;;;;12.47;72.28;102748.69;5032185;28;20197;-78
2021/11/23 11:00:16;;;;;;;5.47;2.93;;;;;;;11.93;74.04;102736.00;5031710;28;20794;-78
2021/11/23 11:02:43;;;;;;;5.60;2.70;;;;;;;11.64;75.21;102745.78;5033060;28;20236;-78
2021/11/23 11:05:10;;;;;;;5.53;2.80;;;;;;;11.78;75.58;102750.75;5031855;28;20198;-79
2021/11/23 11:07:37;;;;;;;6.50;3.13;;;;;;;11.69;75.17;102744.31;5031642;28;20686;-77
2021/11/23 11:10:08;;;;;;;7.23;3.27;;;;;;;11.26;76.62;102745.66;5018394;28;20329;-78
2021/11/23 11:12:34;;;;;;;7.90;2.47;;;;;;;11.05;77.52;102752.34;5032741;28;20175;-78
2021/11/23 11:15:02;;;;;;;7.13;2.77;;;;;;;10.90;77.82;102743.91;5032821;28;20555;-77